sensor_id;sensor_type;location;lat;lon;timestamp;P1;durP1;ratioP1;P2;durP2;ratioP2
15297;SDS011;7750;48.796;9.026;2023-01-28T00:03:32;8.77;;;7.23;;
15297;SDS011;7750;48.796;9.026;2023-01-28T00:08:34;8.47;;;7.30;;
15297;SDS011;7750;48.796;9.026;2023-01-28T00:13:35;9.83;;;7.50;;
15297;SDS011;7750;48.796;9.026;2023-01-28T00:18:35;7.57;;;6.63;;
15297;SDS011;7750;48.796;9.026;2023-01-28T00:23:37;9.10;;;7.50;;
15297;SDS011;7750;48.796;9.026;2023-01-28T00:28:39;9.07;;;7.33;;
15297;SDS011;7750;48.796;9.026;2023-01-28T00:33:41;10.30;;;7.70;;
15297;SDS011;7750;48.796;9.026;2023-01-28T00:38:42;8.03;;;7.00;;
15297;SDS011;7750;48.796;9.026;2023-01-28T00:43:52;8.07;;;6.77;;
15297;SDS011;7750;48.796;9.026;2023-01-28T00:48:53;8.20;;;6.97;;
15297;SDS011;7750;48.796;9.026;2023-01-28T00:53:53;8.00;;;6.40;;
15297;SDS011;7750;48.796;9.026;2023-01-28T00:58:54;7.93;;;6.60;;
15297;SDS011;7750;48.796;9.026;2023-01-28T01:03:55;8.40;;;6.87;;
15297;SDS011;7750;48.796;9.026;2023-01-28T01:09:02;12.10;;;7.77;;
15297;SDS011;7750;48.796;9.026;2023-01-28T01:14:04;8.83;;;7.20;;
15297;SDS011;7750;48.796;9.026;2023-01-28T01:19:05;8.50;;;7.10;;
15297;SDS011;7750;48.796;9.026;2023-01-28T01:24:08;7.70;;;6.30;;
15297;SDS011;7750;48.796;9.026;2023-01-28T01:29:08;8.10;;;6.07;;
15297;SDS011;7750;48.796;9.026;2023-01-28T01:34:09;6.50;;;5.30;;
15297;SDS011;7750;48.796;9.026;2023-01-28T01:39:12;7.47;;;5.90;;
15297;SDS011;7750;48.796;9.026;2023-01-28T01:49:52;7.27;;;5.57;;
15297;SDS011;7750;48.796;9.026;2023-01-28T01:54:55;7.13;;;5.53;;
15297;SDS011;7750;48.796;9.026;2023-01-28T01:59:57;6.00;;;4.70;;
15297;SDS011;7750;48.796;9.026;2023-01-28T02:05:06;6.03;;;4.70;;
15297;SDS011;7750;48.796;9.026;2023-01-28T02:10:07;6.67;;;5.50;;
15297;SDS011;7750;48.796;9.026;2023-01-28T02:15:16;6.30;;;4.90;;
15297;SDS011;7750;48.796;9.026;2023-01-28T02:20:24;5.70;;;4.77;;
15297;SDS011;7750;48.796;9.026;2023-01-28T02:31:07;5.77;;;4.90;;
15297;SDS011;7750;48.796;9.026;2023-01-28T02:36:23;6.50;;;5.17;;
15297;SDS011;7750;48.796;9.026;2023-01-28T02:41:32;7.63;;;4.83;;
15297;SDS011;7750;48.796;9.026;2023-01-28T02:46:37;7.03;;;5.50;;
15297;SDS011;7750;48.796;9.026;2023-01-28T03:07:44;5.67;;;4.87;;
15297;SDS011;7750;48.796;9.026;2023-01-28T03:12:46;6.80;;;5.13;;
15297;SDS011;7750;48.796;9.026;2023-01-28T03:18:10;6.20;;;5.20;;
15297;SDS011;7750;48.796;9.026;2023-01-28T03:23:44;7.07;;;5.20;;
15297;SDS011;7750;48.796;9.026;2023-01-28T03:29:09;7.70;;;5.27;;
15297;SDS011;7750;48.796;9.026;2023-01-28T03:34:32;7.67;;;6.33;;
15297;SDS011;7750;48.796;9.026;2023-01-28T03:39:51;5.60;;;4.97;;
15297;SDS011;7750;48.796;9.026;2023-01-28T03:44:51;7.70;;;6.70;;
15297;SDS011;7750;48.796;9.026;2023-01-28T03:49:53;7.77;;;6.67;;
15297;SDS011;7750;48.796;9.026;2023-01-28T03:54:55;7.97;;;6.70;;
15297;SDS011;7750;48.796;9.026;2023-01-28T03:59:55;7.93;;;6.30;;
15297;SDS011;7750;48.796;9.026;2023-01-28T04:04:56;8.33;;;7.10;;
15297;SDS011;7750;48.796;9.026;2023-01-28T04:09:57;10.17;;;8.47;;
15297;SDS011;7750;48.796;9.026;2023-01-28T04:14:58;9.80;;;8.30;;
15297;SDS011;7750;48.796;9.026;2023-01-28T04:19:59;8.93;;;6.90;;
15297;SDS011;7750;48.796;9.026;2023-01-28T04:24:59;11.23;;;9.17;;
15297;SDS011;7750;48.796;9.026;2023-01-28T04:30:00;10.00;;;7.93;;
15297;SDS011;7750;48.796;9.026;2023-01-28T04:35:00;10.27;;;9.00;;
15297;SDS011;7750;48.796;9.026;2023-01-28T04:40:01;10.57;;;9.17;;
15297;SDS011;7750;48.796;9.026;2023-01-28T04:45:02;12.97;;;10.20;;
15297;SDS011;7750;48.796;9.026;2023-01-28T04:50:03;10.83;;;8.80;;
15297;SDS011;7750;48.796;9.026;2023-01-28T04:55:04;12.60;;;10.07;;
15297;SDS011;7750;48.796;9.026;2023-01-28T05:00:05;9.50;;;7.80;;
15297;SDS011;7750;48.796;9.026;2023-01-28T05:05:08;11.13;;;8.40;;
15297;SDS011;7750;48.796;9.026;2023-01-28T05:10:09;9.23;;;7.87;;
15297;SDS011;7750;48.796;9.026;2023-01-28T05:15:10;11.13;;;8.57;;
15297;SDS011;7750;48.796;9.026;2023-01-28T05:20:11;8.67;;;6.93;;
15297;SDS011;7750;48.796;9.026;2023-01-28T05:25:13;9.80;;;6.47;;
15297;SDS011;7750;48.796;9.026;2023-01-28T05:30:13;8.93;;;6.90;;
15297;SDS011;7750;48.796;9.026;2023-01-28T05:35:14;9.20;;;7.57;;
15297;SDS011;7750;48.796;9.026;2023-01-28T05:40:15;9.87;;;7.70;;
15297;SDS011;7750;48.796;9.026;2023-01-28T05:45:16;9.93;;;7.50;;
15297;SDS011;7750;48.796;9.026;2023-01-28T05:50:17;8.23;;;6.67;;
15297;SDS011;7750;48.796;9.026;2023-01-28T05:55:17;11.87;;;8.07;;
15297;SDS011;7750;48.796;9.026;2023-01-28T06:00:18;10.87;;;7.47;;
15297;SDS011;7750;48.796;9.026;2023-01-28T06:05:19;8.23;;;6.97;;
15297;SDS011;7750;48.796;9.026;2023-01-28T06:10:20;9.33;;;7.27;;
15297;SDS011;7750;48.796;9.026;2023-01-28T06:15:20;8.93;;;7.07;;
15297;SDS011;7750;48.796;9.026;2023-01-28T06:20:21;9.30;;;7.57;;
15297;SDS011;7750;48.796;9.026;2023-01-28T06:25:22;9.40;;;7.87;;
15297;SDS011;7750;48.796;9.026;2023-01-28T06:30:23;10.43;;;8.30;;
15297;SDS011;7750;48.796;9.026;2023-01-28T06:35:23;10.40;;;7.70;;
15297;SDS011;7750;48.796;9.026;2023-01-28T06:40:24;7.97;;;6.90;;
15297;SDS011;7750;48.796;9.026;2023-01-28T06:45:25;10.33;;;7.60;;
15297;SDS011;7750;48.796;9.026;2023-01-28T06:50:25;10.33;;;8.00;;
15297;SDS011;7750;48.796;9.026;2023-01-28T06:55:26;9.07;;;7.50;;
15297;SDS011;7750;48.796;9.026;2023-01-28T07:00:27;10.67;;;8.10;;
15297;SDS011;7750;48.796;9.026;2023-01-28T07:05:27;10.27;;;8.13;;
15297;SDS011;7750;48.796;9.026;2023-01-28T07:10:28;9.80;;;7.70;;
15297;SDS011;7750;48.796;9.026;2023-01-28T07:15:29;8.10;;;6.70;;
15297;SDS011;7750;48.796;9.026;2023-01-28T07:20:30;9.90;;;8.50;;
15297;SDS011;7750;48.796;9.026;2023-01-28T07:25:30;9.50;;;8.30;;
15297;SDS011;7750;48.796;9.026;2023-01-28T07:30:31;9.50;;;8.10;;
15297;SDS011;7750;48.796;9.026;2023-01-28T07:35:31;11.20;;;8.80;;
15297;SDS011;7750;48.796;9.026;2023-01-28T07:40:32;12.00;;;8.10;;
15297;SDS011;7750;48.796;9.026;2023-01-28T07:45:33;11.87;;;9.07;;
15297;SDS011;7750;48.796;9.026;2023-01-28T07:50:34;10.90;;;8.97;;
15297;SDS011;7750;48.796;9.026;2023-01-28T07:55:39;11.60;;;8.57;;
15297;SDS011;7750;48.796;9.026;2023-01-28T08:00:40;11.10;;;8.67;;
15297;SDS011;7750;48.796;9.026;2023-01-28T08:10:48;12.77;;;9.57;;
15297;SDS011;7750;48.796;9.026;2023-01-28T08:15:49;11.77;;;9.53;;
15297;SDS011;7750;48.796;9.026;2023-01-28T08:20:55;10.27;;;8.03;;
15297;SDS011;7750;48.796;9.026;2023-01-28T08:25:57;12.27;;;10.87;;
15297;SDS011;7750;48.796;9.026;2023-01-28T08:31:01;16.07;;;12.43;;
15297;SDS011;7750;48.796;9.026;2023-01-28T08:36:02;16.53;;;12.73;;
15297;SDS011;7750;48.796;9.026;2023-01-28T08:41:03;12.30;;;10.10;;
15297;SDS011;7750;48.796;9.026;2023-01-28T08:46:05;10.20;;;8.87;;
15297;SDS011;7750;48.796;9.026;2023-01-28T08:51:06;11.83;;;9.70;;
15297;SDS011;7750;48.796;9.026;2023-01-28T08:56:07;15.13;;;10.80;;
15297;SDS011;7750;48.796;9.026;2023-01-28T09:01:08;12.20;;;9.60;;
15297;SDS011;7750;48.796;9.026;2023-01-28T09:06:08;12.37;;;10.37;;
15297;SDS011;7750;48.796;9.026;2023-01-28T09:11:09;11.03;;;9.63;;
15297;SDS011;7750;48.796;9.026;2023-01-28T09:16:10;14.97;;;11.60;;
15297;SDS011;7750;48.796;9.026;2023-01-28T09:21:10;16.30;;;12.00;;
15297;SDS011;7750;48.796;9.026;2023-01-28T09:26:11;11.67;;;10.30;;
15297;SDS011;7750;48.796;9.026;2023-01-28T09:31:12;14.33;;;12.07;;
15297;SDS011;7750;48.796;9.026;2023-01-28T09:36:12;16.67;;;12.53;;
15297;SDS011;7750;48.796;9.026;2023-01-28T09:41:24;15.47;;;11.97;;
15297;SDS011;7750;48.796;9.026;2023-01-28T09:46:28;14.97;;;11.30;;
15297;SDS011;7750;48.796;9.026;2023-01-28T09:51:39;14.97;;;11.83;;
15297;SDS011;7750;48.796;9.026;2023-01-28T09:56:42;16.10;;;12.60;;
15297;SDS011;7750;48.796;9.026;2023-01-28T10:01:49;16.00;;;12.87;;
15297;SDS011;7750;48.796;9.026;2023-01-28T10:17:21;14.57;;;11.67;;
15297;SDS011;7750;48.796;9.026;2023-01-28T10:22:26;17.80;;;14.13;;
15297;SDS011;7750;48.796;9.026;2023-01-28T10:27:31;19.63;;;15.10;;
15297;SDS011;7750;48.796;9.026;2023-01-28T10:32:36;16.10;;;12.87;;
15297;SDS011;7750;48.796;9.026;2023-01-28T10:37:42;17.17;;;13.33;;
15297;SDS011;7750;48.796;9.026;2023-01-28T10:42:43;16.70;;;12.77;;
15297;SDS011;7750;48.796;9.026;2023-01-28T10:53:05;17.57;;;12.90;;
15297;SDS011;7750;48.796;9.026;2023-01-28T10:58:05;22.00;;;16.10;;
15297;SDS011;7750;48.796;9.026;2023-01-28T11:03:17;21.13;;;15.33;;
15297;SDS011;7750;48.796;9.026;2023-01-28T11:08:18;19.63;;;14.70;;
15297;SDS011;7750;48.796;9.026;2023-01-28T11:13:21;18.83;;;14.00;;
15297;SDS011;7750;48.796;9.026;2023-01-28T11:18:26;19.97;;;14.77;;
15297;SDS011;7750;48.796;9.026;2023-01-28T11:23:41;17.57;;;13.37;;
15297;SDS011;7750;48.796;9.026;2023-01-28T11:28:58;21.70;;;15.30;;
15297;SDS011;7750;48.796;9.026;2023-01-28T11:33:59;18.77;;;14.00;;
15297;SDS011;7750;48.796;9.026;2023-01-28T11:39:02;21.93;;;16.50;;
15297;SDS011;7750;48.796;9.026;2023-01-28T11:44:21;16.00;;;12.27;;
15297;SDS011;7750;48.796;9.026;2023-01-28T11:49:35;18.50;;;13.47;;
15297;SDS011;7750;48.796;9.026;2023-01-28T12:05:48;18.73;;;13.50;;
15297;SDS011;7750;48.796;9.026;2023-01-28T12:16:19;16.83;;;12.27;;
15297;SDS011;7750;48.796;9.026;2023-01-28T12:32:12;18.90;;;14.07;;
15297;SDS011;7750;48.796;9.026;2023-01-28T12:48:01;15.23;;;11.93;;
15297;SDS011;7750;48.796;9.026;2023-01-28T12:58:51;14.30;;;11.17;;
15297;SDS011;7750;48.796;9.026;2023-01-28T13:04:03;16.20;;;10.67;;
15297;SDS011;7750;48.796;9.026;2023-01-28T13:09:13;11.50;;;9.00;;
15297;SDS011;7750;48.796;9.026;2023-01-28T13:14:19;12.57;;;9.47;;
15297;SDS011;7750;48.796;9.026;2023-01-28T13:19:24;11.30;;;9.10;;
15297;SDS011;7750;48.796;9.026;2023-01-28T13:24:36;13.67;;;10.33;;
15297;SDS011;7750;48.796;9.026;2023-01-28T13:29:37;12.00;;;9.57;;
15297;SDS011;7750;48.796;9.026;2023-01-28T13:34:40;12.70;;;9.50;;
15297;SDS011;7750;48.796;9.026;2023-01-28T13:39:47;13.07;;;10.43;;
15297;SDS011;7750;48.796;9.026;2023-01-28T13:44:50;14.30;;;12.10;;
15297;SDS011;7750;48.796;9.026;2023-01-28T13:49:59;13.93;;;10.00;;
15297;SDS011;7750;48.796;9.026;2023-01-28T13:55:04;11.50;;;8.80;;
15297;SDS011;7750;48.796;9.026;2023-01-28T14:21:39;11.70;;;10.00;;
15297;SDS011;7750;48.796;9.026;2023-01-28T14:26:42;14.43;;;11.57;;
15297;SDS011;7750;48.796;9.026;2023-01-28T14:31:53;14.30;;;10.70;;
15297;SDS011;7750;48.796;9.026;2023-01-28T14:36:58;14.10;;;10.67;;
15297;SDS011;7750;48.796;9.026;2023-01-28T14:42:02;16.67;;;12.37;;
15297;SDS011;7750;48.796;9.026;2023-01-28T14:47:09;14.20;;;11.27;;
15297;SDS011;7750;48.796;9.026;2023-01-28T14:57:49;13.33;;;10.37;;
15297;SDS011;7750;48.796;9.026;2023-01-28T15:02:54;13.50;;;11.27;;
15297;SDS011;7750;48.796;9.026;2023-01-28T15:07:55;11.87;;;9.53;;
15297;SDS011;7750;48.796;9.026;2023-01-28T15:13:02;11.90;;;9.27;;
15297;SDS011;7750;48.796;9.026;2023-01-28T15:18:19;11.83;;;9.10;;
15297;SDS011;7750;48.796;9.026;2023-01-28T15:23:27;10.10;;;8.60;;
15297;SDS011;7750;48.796;9.026;2023-01-28T15:28:32;13.23;;;8.73;;
15297;SDS011;7750;48.796;9.026;2023-01-28T15:33:36;11.97;;;9.70;;
15297;SDS011;7750;48.796;9.026;2023-01-28T15:38:36;9.73;;;8.47;;
15297;SDS011;7750;48.796;9.026;2023-01-28T15:43:37;13.17;;;10.00;;
15297;SDS011;7750;48.796;9.026;2023-01-28T15:48:40;11.67;;;9.87;;
15297;SDS011;7750;48.796;9.026;2023-01-28T15:53:45;13.43;;;9.30;;
15297;SDS011;7750;48.796;9.026;2023-01-28T15:58:48;11.37;;;8.47;;
15297;SDS011;7750;48.796;9.026;2023-01-28T16:04:18;10.33;;;8.10;;
15297;SDS011;7750;48.796;9.026;2023-01-28T16:09:27;12.00;;;10.00;;
15297;SDS011;7750;48.796;9.026;2023-01-28T16:14:41;10.43;;;8.40;;
15297;SDS011;7750;48.796;9.026;2023-01-28T16:19:49;9.40;;;7.87;;
15297;SDS011;7750;48.796;9.026;2023-01-28T16:24:55;8.90;;;7.30;;
15297;SDS011;7750;48.796;9.026;2023-01-28T16:29:55;9.97;;;7.90;;
15297;SDS011;7750;48.796;9.026;2023-01-28T16:34:56;14.87;;;10.37;;
15297;SDS011;7750;48.796;9.026;2023-01-28T16:39:57;12.60;;;9.20;;
15297;SDS011;7750;48.796;9.026;2023-01-28T16:44:57;8.73;;;6.87;;
15297;SDS011;7750;48.796;9.026;2023-01-28T16:49:58;9.97;;;7.83;;
15297;SDS011;7750;48.796;9.026;2023-01-28T16:54:59;7.00;;;5.90;;
15297;SDS011;7750;48.796;9.026;2023-01-28T16:59:59;7.10;;;6.40;;
15297;SDS011;7750;48.796;9.026;2023-01-28T17:05:00;8.17;;;6.23;;
15297;SDS011;7750;48.796;9.026;2023-01-28T17:10:01;9.50;;;7.90;;
15297;SDS011;7750;48.796;9.026;2023-01-28T17:15:02;9.27;;;6.83;;
15297;SDS011;7750;48.796;9.026;2023-01-28T17:20:03;9.50;;;8.47;;
15297;SDS011;7750;48.796;9.026;2023-01-28T17:25:05;9.53;;;7.93;;
15297;SDS011;7750;48.796;9.026;2023-01-28T17:30:06;9.30;;;7.83;;
15297;SDS011;7750;48.796;9.026;2023-01-28T17:35:07;8.03;;;6.70;;
15297;SDS011;7750;48.796;9.026;2023-01-28T17:40:09;12.17;;;7.83;;
15297;SDS011;7750;48.796;9.026;2023-01-28T17:45:11;8.73;;;7.80;;
15297;SDS011;7750;48.796;9.026;2023-01-28T17:50:12;9.17;;;6.90;;
15297;SDS011;7750;48.796;9.026;2023-01-28T17:55:13;8.40;;;7.07;;
15297;SDS011;7750;48.796;9.026;2023-01-28T18:00:14;13.30;;;9.53;;
15297;SDS011;7750;48.796;9.026;2023-01-28T18:05:15;10.27;;;8.33;;
15297;SDS011;7750;48.796;9.026;2023-01-28T18:10:16;10.70;;;8.37;;
15297;SDS011;7750;48.796;9.026;2023-01-28T18:15:17;10.30;;;8.97;;
15297;SDS011;7750;48.796;9.026;2023-01-28T18:20:17;10.50;;;9.10;;
15297;SDS011;7750;48.796;9.026;2023-01-28T18:25:18;9.70;;;8.20;;
15297;SDS011;7750;48.796;9.026;2023-01-28T18:30:19;9.17;;;7.87;;
15297;SDS011;7750;48.796;9.026;2023-01-28T18:35:20;11.67;;;8.80;;
15297;SDS011;7750;48.796;9.026;2023-01-28T18:40:20;9.70;;;8.63;;
15297;SDS011;7750;48.796;9.026;2023-01-28T18:45:21;11.57;;;8.00;;
15297;SDS011;7750;48.796;9.026;2023-01-28T19:00:42;10.20;;;8.60;;
15297;SDS011;7750;48.796;9.026;2023-01-28T19:05:52;13.20;;;9.83;;
15297;SDS011;7750;48.796;9.026;2023-01-28T19:10:54;9.90;;;7.13;;
15297;SDS011;7750;48.796;9.026;2023-01-28T19:42:28;9.90;;;8.90;;
15297;SDS011;7750;48.796;9.026;2023-01-28T19:47:37;9.73;;;8.20;;
15297;SDS011;7750;48.796;9.026;2023-01-28T19:53:27;10.50;;;9.37;;
15297;SDS011;7750;48.796;9.026;2023-01-28T19:58:34;11.27;;;8.90;;
15297;SDS011;7750;48.796;9.026;2023-01-28T20:19:27;11.80;;;9.37;;
15297;SDS011;7750;48.796;9.026;2023-01-28T20:24:33;9.57;;;8.33;;
15297;SDS011;7750;48.796;9.026;2023-01-28T20:30:17;11.07;;;8.93;;
15297;SDS011;7750;48.796;9.026;2023-01-28T20:45:49;12.57;;;10.57;;
15297;SDS011;7750;48.796;9.026;2023-01-28T20:51:07;11.80;;;10.60;;
15297;SDS011;7750;48.796;9.026;2023-01-28T20:56:38;13.53;;;11.33;;
15297;SDS011;7750;48.796;9.026;2023-01-28T21:01:49;14.60;;;11.50;;
15297;SDS011;7750;48.796;9.026;2023-01-28T21:07:03;12.70;;;9.87;;
15297;SDS011;7750;48.796;9.026;2023-01-28T21:12:16;12.90;;;11.00;;
15297;SDS011;7750;48.796;9.026;2023-01-28T21:17:22;11.03;;;9.63;;
15297;SDS011;7750;48.796;9.026;2023-01-28T21:22:50;10.43;;;9.33;;
15297;SDS011;7750;48.796;9.026;2023-01-28T21:38:33;9.53;;;8.43;;
15297;SDS011;7750;48.796;9.026;2023-01-28T21:43:34;9.77;;;8.77;;
15297;SDS011;7750;48.796;9.026;2023-01-28T21:48:34;9.60;;;7.90;;
15297;SDS011;7750;48.796;9.026;2023-01-28T21:53:39;9.90;;;8.90;;
15297;SDS011;7750;48.796;9.026;2023-01-28T21:58:40;11.00;;;8.70;;
15297;SDS011;7750;48.796;9.026;2023-01-28T22:04:00;20.10;;;13.47;;
15297;SDS011;7750;48.796;9.026;2023-01-28T22:09:01;10.90;;;9.33;;
15297;SDS011;7750;48.796;9.026;2023-01-28T22:14:03;25.33;;;16.40;;
15297;SDS011;7750;48.796;9.026;2023-01-28T22:19:04;13.80;;;10.40;;
15297;SDS011;7750;48.796;9.026;2023-01-28T22:24:06;11.43;;;9.03;;
15297;SDS011;7750;48.796;9.026;2023-01-28T22:29:10;14.27;;;10.17;;
15297;SDS011;7750;48.796;9.026;2023-01-28T22:34:12;9.30;;;7.83;;
15297;SDS011;7750;48.796;9.026;2023-01-28T22:39:13;9.83;;;8.53;;
15297;SDS011;7750;48.796;9.026;2023-01-28T22:44:15;11.27;;;8.90;;
15297;SDS011;7750;48.796;9.026;2023-01-28T22:49:18;11.20;;;9.90;;
15297;SDS011;7750;48.796;9.026;2023-01-28T22:54:21;12.43;;;9.70;;
15297;SDS011;7750;48.796;9.026;2023-01-28T22:59:21;29.20;;;16.93;;
15297;SDS011;7750;48.796;9.026;2023-01-28T23:04:22;36.10;;;21.30;;
15297;SDS011;7750;48.796;9.026;2023-01-28T23:09:22;16.70;;;12.63;;
15297;SDS011;7750;48.796;9.026;2023-01-28T23:14:23;13.20;;;10.93;;
15297;SDS011;7750;48.796;9.026;2023-01-28T23:19:42;8.23;;;7.13;;
15297;SDS011;7750;48.796;9.026;2023-01-28T23:25:01;8.10;;;7.30;;
15297;SDS011;7750;48.796;9.026;2023-01-28T23:30:02;9.93;;;8.37;;
15297;SDS011;7750;48.796;9.026;2023-01-28T23:35:03;8.33;;;7.37;;
15297;SDS011;7750;48.796;9.026;2023-01-28T23:40:05;8.80;;;7.33;;
15297;SDS011;7750;48.796;9.026;2023-01-28T23:45:06;7.80;;;7.00;;
15297;SDS011;7750;48.796;9.026;2023-01-28T23:50:07;8.10;;;6.90;;
15297;SDS011;7750;48.796;9.026;2023-01-28T23:55:08;7.83;;;6.60;;
